»·PEaware :: VIR6 KMIA-EGLL

VIR6 :: KMIA-EGLL

FLIGHT INFORMATION

Flight Status: Arrived
Operator:
Virgin Atlantic Airways
More flights by this operator :: More flights under this callsign
Pilot: Cullen C. (7783)
Aircraft: AIRBUS A330-200
(A332)
More flights by this aircraft type
Origin: KMIA Miami Intl
United States
Destination: EGLL Heathrow
United Kingdom
More flights between these airports :: More routes between these airports
Route: VALLY WOLFO AR18 DIW J174 RIFLE ACK BRADD N255A JOOPY ELSOX EVRIN UL607 NUMPO UP2 BEDEK
File this flight plan on PilotEdge
Remarks:
Altitude:
(Current/Filed)
37,000ft
Speed:
(Current/Filed)
480kts
Departed: 18-Sep-17 10:57 AM
Arrived: 18-Sep-17 07:22 PM
Distance/Time
Traveled:
3836nm/8:25
Distance/Time
To Go:
Arrived

Flight Plot

Page will automatically refresh every two minutes.

Flight plan parsing failed; only flown route is shown


Map Options




Map Legend


Flown Route
Filed Route
Departure Airport
Arrival Airport
Navaid (VOR, NDB)
Fix

Horizontal Profiles

Position Reports

Time Latitude Longitude Heading Altitude Ground
Speed
18-Sep-17 10:35 25.792524 -80.282481 135 19ft 0kts
18-Sep-17 10:36 25.792524 -80.282481 135 19ft 0kts
18-Sep-17 10:37 25.792524 -80.282481 135 19ft 0kts
18-Sep-17 10:38 25.792524 -80.282481 135 19ft 0kts
18-Sep-17 10:39 25.792524 -80.282481 135 19ft 0kts
18-Sep-17 10:40 25.792524 -80.282481 135 19ft 0kts
18-Sep-17 10:41 25.792524 -80.282481 135 19ft 0kts
18-Sep-17 10:42 25.792524 -80.282481 135 18ft 0kts
18-Sep-17 10:43 25.792524 -80.282481 135 18ft 0kts
18-Sep-17 10:44 25.792524 -80.282481 135 18ft 0kts
18-Sep-17 10:45 25.792524 -80.282481 135 18ft 0kts
18-Sep-17 10:46 25.792524 -80.282481 135 18ft 0kts
18-Sep-17 10:47 25.792524 -80.282481 135 18ft 0kts
18-Sep-17 10:48 25.792524 -80.282481 135 18ft 0kts
18-Sep-17 10:49 25.792524 -80.282481 135 18ft 0kts
18-Sep-17 10:50 25.792818 -80.282809 136 18ft 2kts
18-Sep-17 10:51 25.793323 -80.282729 225 18ft 2kts
18-Sep-17 10:52 25.793372 -80.282675 224 18ft 0kts
18-Sep-17 10:53 25.793359 -80.282689 224 18ft 0kts
18-Sep-17 10:54 25.791511 -80.284143 205 18ft 18kts
18-Sep-17 10:55 25.788352 -80.289749 255 18ft 25kts
18-Sep-17 10:56 25.787927 -80.297727 267 18ft 25kts
18-Sep-17 10:57 25.788458 -80.304896 267 18ft 22kts
18-Sep-17 10:58 25.788164 -80.311819 267 18ft 23kts
18-Sep-17 10:59 25.787290 -80.314562 177 18ft 0kts
18-Sep-17 11:00 25.786240 -80.312114 87 18ft 40kts
18-Sep-17 11:01 25.787927 -80.273376 87 441ft 180kts
18-Sep-17 11:02 25.790040 -80.217654 87 2341ft 194kts
18-Sep-17 11:03 25.797582 -80.147944 81 3390ft 268kts
18-Sep-17 11:04 25.808738 -80.065133 77 5969ft 277kts
18-Sep-17 11:05 25.850414 -79.993342 51 8461ft 283kts
18-Sep-17 11:06 25.899742 -79.921281 50 10321ft 313kts
18-Sep-17 11:07 25.957434 -79.837587 51 11380ft 371kts
18-Sep-17 11:08 26.022606 -79.742366 52 13344ft 397kts
18-Sep-17 11:09 26.087830 -79.643001 52 15703ft 406kts
18-Sep-17 11:10 26.154657 -79.540877 52 17920ft 415kts
18-Sep-17 11:11 26.222985 -79.435942 51 19864ft 427kts
18-Sep-17 11:12 26.292673 -79.328630 52 21682ft 436kts
18-Sep-17 11:13 26.364183 -79.218164 52 23326ft 446kts
18-Sep-17 11:14 26.454163 -79.129198 18 24628ft 448kts
18-Sep-17 11:15 26.573297 -79.084735 15 25901ft 458kts
18-Sep-17 11:16 26.696125 -79.042292 15 27098ft 469kts
18-Sep-17 11:17 26.820807 -78.999257 15 28260ft 477kts
18-Sep-17 11:18 26.947216 -78.955523 15 29615ft 477kts
18-Sep-17 11:19 27.072961 -78.911921 15 30916ft 475kts
18-Sep-17 11:20 27.198474 -78.868341 14 32021ft 476kts
18-Sep-17 11:21 27.323926 -78.824644 14 33017ft 476kts
18-Sep-17 11:22 27.451192 -78.790696 5 33897ft 473kts
18-Sep-17 11:23 27.579916 -78.771215 5 34848ft 469kts
18-Sep-17 11:24 27.707963 -78.752176 5 35720ft 465kts
18-Sep-17 11:25 27.834595 -78.733312 5 36438ft 462kts
18-Sep-17 11:26 27.961162 -78.714413 5 36992ft 459kts
18-Sep-17 11:27 28.087270 -78.695758 5 36991ft 461kts
18-Sep-17 11:28 28.192529 -78.680279 4 36987ft 461kts
18-Sep-17 11:29 28.339161 -78.658640 4 37019ft 461kts
18-Sep-17 11:30 28.465590 -78.639935 4 37029ft 461kts
18-Sep-17 11:31 28.571116 -78.624288 4 37023ft 461kts
18-Sep-17 11:32 28.696853 -78.605603 4 37026ft 461kts
18-Sep-17 11:33 28.841418 -78.584067 5 37026ft 442kts
18-Sep-17 11:34 28.964589 -78.565663 5 37020ft 448kts
18-Sep-17 11:35 29.066237 -78.550444 5 37032ft 447kts
18-Sep-17 11:36 29.188229 -78.532166 5 37012ft 451kts
18-Sep-17 11:37 29.331299 -78.510644 5 37018ft 448kts
18-Sep-17 11:38 29.433592 -78.495216 5 37027ft 446kts
18-Sep-17 11:40 29.677689 -78.458997 5 37024ft 446kts
18-Sep-17 11:41 29.799773 -78.440915 5 37024ft 442kts
18-Sep-17 11:42 29.920812 -78.422941 5 37024ft 448kts
18-Sep-17 11:43 30.042789 -78.404778 5 37016ft 446kts
18-Sep-17 11:44 30.164782 -78.386590 5 37027ft 445kts
18-Sep-17 11:45 30.286546 -78.368378 5 37055ft 445kts
18-Sep-17 11:46 30.407855 -78.350185 5 37053ft 445kts
18-Sep-17 11:47 30.527268 -78.325133 8 37011ft 446kts
18-Sep-17 11:48 30.647287 -78.299277 8 37014ft 445kts
18-Sep-17 11:49 30.768181 -78.273171 8 37024ft 444kts
18-Sep-17 11:50 30.888773 -78.247071 8 37024ft 445kts
18-Sep-17 11:51 31.009028 -78.221261 8 37019ft 445kts
18-Sep-17 11:52 31.126391 -78.196224 8 37025ft 445kts
18-Sep-17 11:53 31.246554 -78.170540 8 37023ft 444kts
18-Sep-17 11:54 31.367205 -78.144668 8 37021ft 445kts
18-Sep-17 11:55 31.487346 -78.118843 8 37029ft 447kts
18-Sep-17 11:56 31.608020 -78.092824 8 37026ft 443kts
18-Sep-17 11:57 31.728534 -78.066777 8 37018ft 444kts
18-Sep-17 11:58 31.848223 -78.040840 8 37044ft 445kts
18-Sep-17 11:59 31.968381 -78.014732 8 37057ft 444kts
18-Sep-17 12:00 32.088463 -77.988572 8 37046ft 444kts
18-Sep-17 12:01 32.208068 -77.962470 8 37048ft 444kts
18-Sep-17 12:02 32.327748 -77.936558 8 37017ft 444kts
18-Sep-17 12:03 32.448236 -77.910587 8 37028ft 444kts
18-Sep-17 12:04 32.568572 -77.884584 8 37022ft 444kts
18-Sep-17 12:05 32.688497 -77.859051 8 37020ft 444kts
18-Sep-17 12:06 32.808965 -77.833559 7 37023ft 444kts
18-Sep-17 12:07 32.929316 -77.808017 7 37024ft 444kts
18-Sep-17 12:08 33.050391 -77.782253 6 37018ft 450kts
18-Sep-17 12:09 33.170351 -77.756692 6 37024ft 449kts
18-Sep-17 12:10 33.292148 -77.730635 6 37024ft 449kts
18-Sep-17 12:11 33.414012 -77.704486 6 37022ft 449kts
18-Sep-17 12:12 33.536053 -77.678225 6 37023ft 450kts
18-Sep-17 12:13 33.657693 -77.651976 6 37023ft 450kts
18-Sep-17 12:14 33.779239 -77.625674 6 37022ft 451kts
18-Sep-17 12:15 33.901467 -77.599145 6 37023ft 451kts
18-Sep-17 12:16 34.023109 -77.572668 6 37022ft 452kts
18-Sep-17 12:17 34.144466 -77.546191 5 37023ft 452kts
18-Sep-17 12:18 34.266376 -77.519506 5 37000ft 453kts
18-Sep-17 12:19 34.388955 -77.492593 5 37000ft 454kts
18-Sep-17 12:20 34.512198 -77.465448 5 36994ft 454kts
18-Sep-17 12:21 34.631875 -77.419431 17 37005ft 463kts
18-Sep-17 12:22 34.748763 -77.358636 18 36995ft 464kts
18-Sep-17 12:23 34.865662 -77.297068 19 36991ft 465kts
18-Sep-17 12:24 34.981473 -77.236009 20 36997ft 452kts
18-Sep-17 12:25 35.096725 -77.175038 20 36995ft 456kts
18-Sep-17 12:26 35.211185 -77.114383 20 36995ft 458kts
18-Sep-17 12:27 35.326416 -77.053063 20 36996ft 458kts
18-Sep-17 12:28 35.441954 -76.991392 21 36994ft 458kts
18-Sep-17 12:29 35.558082 -76.929186 20 36997ft 455kts
18-Sep-17 12:30 35.673033 -76.867449 21 36993ft 459kts
18-Sep-17 12:31 35.789000 -76.804961 21 36996ft 459kts
18-Sep-17 12:32 35.904478 -76.742522 20 36993ft 466kts
18-Sep-17 12:33 36.024002 -76.677714 20 36996ft 480kts
18-Sep-17 12:34 36.142959 -76.613014 20 36996ft 477kts
18-Sep-17 12:35 36.262827 -76.547643 21 36999ft 475kts
18-Sep-17 12:36 36.381201 -76.482740 20 37000ft 477kts
18-Sep-17 12:37 36.500715 -76.417028 20 37019ft 476kts
18-Sep-17 12:38 36.620074 -76.351192 20 37023ft 477kts
18-Sep-17 12:39 36.740126 -76.284610 21 37023ft 477kts
18-Sep-17 12:40 36.859553 -76.218276 21 37044ft 478kts
18-Sep-17 12:41 36.980047 -76.153627 20 37021ft 476kts
18-Sep-17 12:42 37.100595 -76.089656 20 37074ft 478kts
18-Sep-17 12:43 37.205149 -76.034046 20 37076ft 477kts
18-Sep-17 12:44 37.324420 -75.970242 20 37049ft 468kts
18-Sep-17 12:45 37.445033 -75.905692 20 37050ft 479kts
18-Sep-17 12:46 37.563747 -75.834806 27 37049ft 481kts
18-Sep-17 12:47 37.677357 -75.750364 28 37051ft 480kts
18-Sep-17 12:48 37.791493 -75.664550 28 37049ft 481kts
18-Sep-17 12:49 37.905189 -75.578929 28 37050ft 481kts
18-Sep-17 12:50 38.018508 -75.492902 28 37064ft 481kts
18-Sep-17 12:51 38.124309 -75.393209 36 37075ft 485kts
18-Sep-17 12:52 38.199190 -75.315176 37 37053ft 485kts
18-Sep-17 12:53 38.291264 -75.218658 37 37048ft 486kts
18-Sep-17 12:54 38.395122 -75.109447 37 37050ft 487kts
18-Sep-17 12:55 38.499888 -74.999043 39 37051ft 501kts
18-Sep-17 12:56 38.607798 -74.884488 39 37052ft 513kts
18-Sep-17 12:57 38.715887 -74.769463 39 37079ft 511kts
18-Sep-17 12:58 38.823866 -74.654177 38 37078ft 510kts
18-Sep-17 12:59 38.932069 -74.538219 38 37077ft 510kts
18-Sep-17 13:00 39.039606 -74.422401 39 37104ft 510kts
18-Sep-17 13:01 39.130889 -74.323744 39 37102ft 509kts
18-Sep-17 13:02 39.227449 -74.218944 39 37103ft 510kts
18-Sep-17 13:03 39.287799 -74.153261 39 37102ft 509kts
18-Sep-17 13:04 39.359123 -74.075440 39 37102ft 506kts
18-Sep-17 13:05 39.465764 -73.958664 39 37133ft 510kts
18-Sep-17 13:06 39.573092 -73.840643 39 37131ft 509kts
18-Sep-17 13:07 39.679468 -73.723176 39 37131ft 508kts
18-Sep-17 13:08 39.786505 -73.604479 39 37132ft 508kts
18-Sep-17 13:09 39.893131 -73.485735 39 37132ft 508kts
18-Sep-17 13:10 39.999464 -73.366814 39 37132ft 508kts
18-Sep-17 13:11 40.104772 -73.248421 40 37130ft 508kts
18-Sep-17 13:12 40.209136 -73.130852 40 37130ft 508kts
18-Sep-17 13:13 40.315380 -73.010517 40 37131ft 508kts
18-Sep-17 13:14 40.421282 -72.890047 40 37158ft 508kts
18-Sep-17 13:15 40.526923 -72.769350 40 37158ft 508kts
18-Sep-17 13:16 40.632554 -72.648137 40 37158ft 509kts
18-Sep-17 13:17 40.709052 -72.497708 71 37160ft 508kts
18-Sep-17 13:18 40.752875 -72.323639 74 37157ft 505kts
18-Sep-17 13:19 40.795305 -72.147769 74 37159ft 506kts
18-Sep-17 13:20 40.837255 -71.972524 74 37158ft 507kts
18-Sep-17 13:21 40.879383 -71.795196 74 37158ft 507kts
18-Sep-17 13:22 40.921049 -71.618428 74 37159ft 508kts
18-Sep-17 13:23 40.962657 -71.440396 74 37160ft 511kts
18-Sep-17 13:24 41.003444 -71.264752 75 37157ft 505kts
18-Sep-17 13:25 41.044512 -71.086350 75 37159ft 509kts
18-Sep-17 13:26 41.085270 -70.907910 75 37159ft 510kts
18-Sep-17 13:27 41.120949 -70.751049 75 37157ft 509kts
18-Sep-17 13:28 41.159325 -70.580613 75 37157ft 509kts
18-Sep-17 13:29 41.199356 -70.401321 75 37158ft 510kts
18-Sep-17 13:30 41.239135 -70.221550 75 37157ft 510kts
18-Sep-17 13:31 41.280374 -70.042946 64 37146ft 511kts
18-Sep-17 13:32 41.367614 -69.894710 48 37160ft 513kts
18-Sep-17 13:33 41.459947 -69.751152 48 37187ft 514kts
18-Sep-17 13:34 41.552033 -69.607611 48 37185ft 513kts
18-Sep-17 13:35 41.644194 -69.463269 48 37185ft 513kts
18-Sep-17 13:36 41.735437 -69.319649 49 37183ft 513kts
18-Sep-17 13:37 41.826606 -69.175384 49 37184ft 513kts
18-Sep-17 13:38 41.918358 -69.029590 49 37186ft 513kts
18-Sep-17 13:39 42.009520 -68.884023 49 37186ft 513kts
18-Sep-17 13:40 42.100418 -68.738164 49 37185ft 513kts
18-Sep-17 13:41 42.182951 -68.605316 49 37184ft 513kts
18-Sep-17 13:42 42.273228 -68.459103 49 37185ft 513kts
18-Sep-17 13:43 42.362190 -68.314266 50 37183ft 512kts
18-Sep-17 13:44 42.451800 -68.167601 50 37233ft 511kts
18-Sep-17 13:45 42.542049 -68.019246 50 37235ft 512kts
18-Sep-17 13:46 42.632193 -67.870320 50 37239ft 513kts
18-Sep-17 13:47 42.721704 -67.721694 50 37266ft 513kts
18-Sep-17 13:48 42.811030 -67.572625 50 37265ft 512kts
18-Sep-17 13:49 42.900143 -67.423157 50 37267ft 512kts
18-Sep-17 13:50 42.989294 -67.272771 51 37266ft 512kts
18-Sep-17 13:51 43.062885 -67.148077 50 37266ft 512kts
18-Sep-17 13:52 43.149457 -66.998952 53 37266ft 509kts
18-Sep-17 13:53 43.238223 -66.808507 54 37271ft 507kts
18-Sep-17 13:54 43.313160 -66.645086 55 37265ft 512kts
18-Sep-17 13:55 43.375289 -66.508737 55 37268ft 508kts
18-Sep-17 13:56 43.449970 -66.344016 56 37266ft 508kts
18-Sep-17 13:57 43.524143 -66.179358 56 37266ft 509kts
18-Sep-17 13:58 43.598238 -66.014076 56 37265ft 508kts
18-Sep-17 13:59 43.672094 -65.848386 56 37266ft 507kts
18-Sep-17 14:00 43.745272 -65.683273 55 37267ft 507kts
18-Sep-17 14:01 43.818078 -65.517916 55 37209ft 504kts
18-Sep-17 14:02 43.890583 -65.352625 55 36995ft 504kts
18-Sep-17 14:03 43.963019 -65.186236 56 36996ft 506kts
18-Sep-17 14:04 44.034940 -65.020199 56 36995ft 505kts
18-Sep-17 14:05 44.106668 -64.853669 56 36996ft 504kts
18-Sep-17 14:06 44.178271 -64.686731 56 36996ft 504kts
18-Sep-17 14:07 44.249469 -64.519478 56 36996ft 503kts
18-Sep-17 14:08 44.320445 -64.351776 56 36997ft 503kts
18-Sep-17 14:09 44.391048 -64.183777 56 36996ft 502kts
18-Sep-17 14:10 44.461400 -64.015622 57 36996ft 503kts
18-Sep-17 14:11 44.531522 -63.846973 57 36995ft 503kts
18-Sep-17 14:12 44.601166 -63.678464 56 36996ft 502kts
18-Sep-17 14:13 44.671006 -63.508471 56 37293ft 505kts
18-Sep-17 14:14 44.740109 -63.339269 57 37289ft 503kts
18-Sep-17 14:15 44.809341 -63.168578 57 37280ft 504kts
18-Sep-17 14:16 44.878453 -62.997292 57 36991ft 502kts
18-Sep-17 14:17 44.947241 -62.825741 57 36994ft 504kts
18-Sep-17 14:18 45.015795 -62.653711 57 36997ft 504kts
18-Sep-17 14:19 45.084265 -62.480848 56 36997ft 505kts
18-Sep-17 14:20 45.151824 -62.309493 57 36994ft 505kts
18-Sep-17 14:21 45.219711 -62.135898 57 36995ft 506kts
18-Sep-17 14:22 45.287612 -61.961241 57 36996ft 506kts
18-Sep-17 14:23 45.355167 -61.786362 57 36997ft 507kts
18-Sep-17 14:24 45.422586 -61.610743 57 36996ft 507kts
18-Sep-17 14:25 45.489717 -61.434733 56 37294ft 509kts
18-Sep-17 14:26 45.556712 -61.257830 57 37317ft 508kts
18-Sep-17 14:27 45.623495 -61.080419 57 37310ft 505kts
18-Sep-17 14:28 45.690356 -60.901697 57 37313ft 510kts
18-Sep-17 14:29 45.756700 -60.723217 57 37189ft 512kts
18-Sep-17 14:30 45.822567 -60.544781 57 37109ft 506kts
18-Sep-17 14:31 45.888491 -60.365045 57 37337ft 513kts
18-Sep-17 14:32 45.954148 -60.184717 57 37347ft 512kts
18-Sep-17 14:33 46.019555 -60.003949 57 37349ft 511kts
18-Sep-17 14:34 46.084798 -59.822470 57 37346ft 512kts
18-Sep-17 14:35 46.149514 -59.641543 57 37347ft 512kts
18-Sep-17 14:36 46.214015 -59.459672 57 37348ft 513kts
18-Sep-17 14:37 46.278243 -59.277210 58 37348ft 513kts
18-Sep-17 14:38 46.342588 -59.093220 58 37347ft 513kts
18-Sep-17 14:39 46.406585 -58.908725 56 37351ft 514kts
18-Sep-17 14:40 46.469374 -58.727046 55 37355ft 506kts
18-Sep-17 14:41 46.531912 -58.544439 55 37347ft 506kts
18-Sep-17 14:42 46.594126 -58.361572 55 37347ft 507kts
18-Sep-17 14:43 46.655059 -58.181026 56 37088ft 506kts
18-Sep-17 14:44 46.716807 -57.997089 56 37402ft 511kts
18-Sep-17 14:45 46.778327 -57.812353 56 37404ft 507kts
18-Sep-17 14:46 46.839826 -57.626413 56 37400ft 508kts
18-Sep-17 14:47 46.900877 -57.440446 55 37400ft 512kts
18-Sep-17 14:48 46.961559 -57.254280 56 37398ft 510kts
18-Sep-17 14:49 47.022051 -57.067335 56 37401ft 510kts
18-Sep-17 14:50 47.082630 -56.878801 56 37401ft 511kts
18-Sep-17 14:51 47.142178 -56.692456 56 37401ft 512kts
18-Sep-17 14:52 47.201867 -56.503968 56 37279ft 512kts
18-Sep-17 14:53 47.259775 -56.319679 57 37037ft 517kts
18-Sep-17 14:54 47.318996 -56.129766 57 36994ft 512kts
18-Sep-17 14:55 47.378148 -55.938646 57 36994ft 512kts
18-Sep-17 14:56 47.437029 -55.747035 57 36998ft 514kts
18-Sep-17 14:57 47.495664 -55.554744 57 36997ft 514kts
18-Sep-17 14:58 47.553844 -55.362459 57 36997ft 514kts
18-Sep-17 14:59 47.611505 -55.170226 58 36993ft 516kts
18-Sep-17 15:00 47.668955 -54.977361 58 37000ft 519kts
18-Sep-17 15:01 47.726684 -54.782060 58 36996ft 517kts
18-Sep-17 15:02 47.783995 -54.586570 58 36995ft 517kts
18-Sep-17 15:03 47.840721 -54.391548 58 36997ft 518kts
18-Sep-17 15:04 47.896847 -54.196901 58 36995ft 520kts
18-Sep-17 15:05 47.953240 -53.999857 58 36996ft 519kts
18-Sep-17 15:06 48.009437 -53.801896 58 36995ft 519kts
18-Sep-17 15:07 48.065215 -53.603792 58 36996ft 519kts
18-Sep-17 15:08 48.120216 -53.407125 58 36997ft 519kts
18-Sep-17 15:09 48.175290 -53.208232 59 36998ft 520kts
18-Sep-17 15:10 48.229921 -53.009274 59 37002ft 520kts
18-Sep-17 15:11 48.284075 -52.810429 59 37211ft 520kts
18-Sep-17 15:12 48.338121 -52.610275 60 37396ft 520kts
18-Sep-17 15:13 48.391910 -52.409281 60 37403ft 517kts
18-Sep-17 15:14 48.445181 -52.208421 60 37404ft 519kts
18-Sep-17 15:15 48.498041 -52.007196 61 37400ft 519kts
18-Sep-17 15:16 48.548010 -51.803547 62 37400ft 519kts
18-Sep-17 15:17 48.597390 -51.599679 62 37403ft 517kts
18-Sep-17 15:18 48.646214 -51.396235 62 37402ft 517kts
18-Sep-17 15:19 48.694872 -51.191429 63 37401ft 519kts
18-Sep-17 15:20 48.743175 -50.986315 63 37402ft 518kts
18-Sep-17 15:21 48.790958 -50.781467 63 37441ft 516kts
18-Sep-17 15:22 48.838397 -50.576171 63 37427ft 517kts
18-Sep-17 15:23 48.885523 -50.370291 63 37425ft 516kts
18-Sep-17 15:24 48.931968 -50.165224 64 37425ft 517kts
18-Sep-17 15:25 48.978289 -49.958839 64 37428ft 516kts
18-Sep-17 15:26 49.024108 -49.752701 64 37428ft 516kts
18-Sep-17 15:27 49.069529 -49.546320 64 37428ft 516kts
18-Sep-17 15:28 49.114715 -49.339237 64 37427ft 515kts
18-Sep-17 15:29 49.159535 -49.131528 64 37430ft 514kts
18-Sep-17 15:30 49.203805 -48.924253 64 37428ft 515kts
18-Sep-17 15:31 49.247707 -48.716548 64 37429ft 514kts
18-Sep-17 15:32 49.291246 -48.508424 64 37430ft 514kts
18-Sep-17 15:33 49.333867 -48.302524 65 37426ft 513kts
18-Sep-17 15:34 49.376701 -48.093339 65 37426ft 514kts
18-Sep-17 15:35 49.418930 -47.885071 65 37431ft 513kts
18-Sep-17 15:36 49.459815 -47.681376 65 37429ft 500kts
18-Sep-17 15:37 49.500349 -47.477082 65 37430ft 497kts
18-Sep-17 15:38 49.540415 -47.273056 66 37429ft 500kts
18-Sep-17 15:39 49.580250 -47.068041 66 37428ft 499kts
18-Sep-17 15:40 49.619447 -46.864216 66 37427ft 499kts
18-Sep-17 15:41 49.658490 -46.658975 66 37427ft 499kts
18-Sep-17 15:42 49.697132 -46.453602 66 37429ft 499kts
18-Sep-17 15:43 49.735510 -46.247242 67 37425ft 500kts
18-Sep-17 15:44 49.773437 -46.041088 67 37428ft 499kts
18-Sep-17 15:45 49.810946 -45.834942 67 37428ft 499kts
18-Sep-17 15:46 49.848249 -45.627604 67 37428ft 499kts
18-Sep-17 15:47 49.884973 -45.421120 67 37428ft 498kts
18-Sep-17 15:48 49.921397 -45.213785 68 37427ft 499kts
18-Sep-17 15:49 49.957451 -45.006261 68 37426ft 499kts
18-Sep-17 15:50 49.993194 -44.798096 68 37426ft 499kts
18-Sep-17 15:51 50.028432 -44.590413 68 37428ft 499kts
18-Sep-17 15:52 50.063326 -44.382270 68 37427ft 498kts
18-Sep-17 15:53 50.097832 -44.173751 69 37425ft 499kts
18-Sep-17 15:54 50.132229 -43.964204 69 37430ft 499kts
18-Sep-17 15:55 50.165969 -43.755392 69 37430ft 499kts
18-Sep-17 15:56 50.199420 -43.545716 69 37429ft 499kts
18-Sep-17 15:57 50.232508 -43.335650 70 37428ft 499kts
18-Sep-17 15:58 50.265116 -43.125714 70 37429ft 498kts
18-Sep-17 15:59 50.297987 -42.914021 76 37429ft 512kts
18-Sep-17 16:00 50.331213 -42.692115 76 37433ft 535kts
18-Sep-17 16:01 50.365209 -42.464341 76 37428ft 536kts
18-Sep-17 16:02 50.398726 -42.236289 77 37426ft 538kts
18-Sep-17 16:03 50.431642 -42.009113 77 37429ft 538kts
18-Sep-17 16:04 50.464317 -41.780253 77 37429ft 537kts
18-Sep-17 16:05 50.491157 -41.589703 77 37429ft 537kts
18-Sep-17 16:06 50.522887 -41.361070 77 37429ft 537kts
18-Sep-17 16:07 50.559316 -41.094094 78 37429ft 537kts
18-Sep-17 16:08 50.590192 -40.864014 78 37428ft 537kts
18-Sep-17 16:09 50.620451 -40.634899 79 37428ft 537kts
18-Sep-17 16:10 50.645345 -40.443459 79 37430ft 536kts
18-Sep-17 16:11 50.674818 -40.213371 80 37426ft 536kts
18-Sep-17 16:12 50.703875 -39.982792 80 37428ft 535kts
18-Sep-17 16:13 50.737121 -39.714034 80 37428ft 535kts
18-Sep-17 16:14 50.760319 -39.523248 80 37429ft 535kts
18-Sep-17 16:15 50.787896 -39.292811 81 37427ft 534kts
18-Sep-17 16:16 50.814956 -39.062532 81 37428ft 534kts
18-Sep-17 16:17 50.841580 -38.831869 81 37429ft 534kts
18-Sep-17 16:18 50.867824 -38.600326 81 37429ft 534kts
18-Sep-17 16:19 50.893481 -38.369698 81 37430ft 533kts
18-Sep-17 16:20 50.918282 -38.142496 82 37428ft 533kts
18-Sep-17 16:21 50.943066 -37.910907 81 37430ft 532kts
18-Sep-17 16:22 50.966130 -37.689512 74 37419ft 483kts
18-Sep-17 16:23 50.987985 -37.479585 75 37429ft 489kts
18-Sep-17 16:24 51.009331 -37.268580 76 37429ft 486kts
18-Sep-17 16:25 51.030378 -37.056562 75 37427ft 485kts
18-Sep-17 16:26 51.051007 -36.844836 76 37426ft 486kts
18-Sep-17 16:27 51.071221 -36.633273 75 37427ft 485kts
18-Sep-17 16:28 51.091067 -36.421283 75 37144ft 484kts
18-Sep-17 16:29 51.110312 -36.212727 76 36895ft 484kts
18-Sep-17 16:30 51.129384 -36.000853 76 36883ft 486kts
18-Sep-17 16:31 51.148114 -35.788105 76 36887ft 485kts
18-Sep-17 16:32 51.166391 -35.575947 76 36891ft 485kts
18-Sep-17 16:33 51.184322 -35.363185 76 36889ft 485kts
18-Sep-17 16:34 51.201889 -35.149734 77 36887ft 486kts
18-Sep-17 16:35 51.219072 -34.936319 77 36887ft 486kts
18-Sep-17 16:36 51.235825 -34.723282 77 36889ft 486kts
18-Sep-17 16:37 51.252220 -34.509697 77 36889ft 485kts
18-Sep-17 16:38 51.268210 -34.296137 78 36888ft 486kts
18-Sep-17 16:39 51.283814 -34.082228 78 36887ft 486kts
18-Sep-17 16:40 51.299046 -33.868353 78 36893ft 480kts
18-Sep-17 16:41 51.312966 -33.668310 82 36885ft 426kts
18-Sep-17 16:42 51.325609 -33.480634 81 36886ft 431kts
18-Sep-17 16:43 51.338030 -33.292185 82 36887ft 428kts
18-Sep-17 16:44 51.350208 -33.102956 82 36889ft 427kts
18-Sep-17 16:45 51.362056 -32.914075 82 36887ft 427kts
18-Sep-17 16:46 51.373594 -32.725225 82 36887ft 427kts
18-Sep-17 16:47 51.384808 -32.536538 82 36886ft 427kts
18-Sep-17 16:48 51.395729 -32.347621 83 36886ft 427kts
18-Sep-17 16:49 51.406321 -32.158871 83 36888ft 426kts
18-Sep-17 16:50 51.416629 -31.969887 83 36888ft 427kts
18-Sep-17 16:51 51.426631 -31.780862 83 36888ft 426kts
18-Sep-17 16:52 51.436336 -31.591626 83 36886ft 426kts
18-Sep-17 16:53 51.445703 -31.402960 83 36886ft 426kts
18-Sep-17 16:54 51.454788 -31.213682 84 36887ft 426kts
18-Sep-17 16:55 51.463561 -31.024507 84 36888ft 426kts
18-Sep-17 16:56 51.472014 -30.835716 84 36887ft 426kts
18-Sep-17 16:57 51.480190 -30.646239 84 36888ft 425kts
18-Sep-17 16:58 51.488278 -30.458166 89 36885ft 413kts
18-Sep-17 16:59 51.495541 -30.269371 93 36891ft 437kts
18-Sep-17 17:00 51.503138 -30.069849 92 36888ft 458kts
18-Sep-17 17:01 51.510497 -29.868656 92 37110ft 455kts
18-Sep-17 17:02 51.517666 -29.662934 92 37212ft 462kts
18-Sep-17 17:03 51.524429 -29.457873 92 37210ft 463kts
18-Sep-17 17:04 51.530764 -29.254231 93 37202ft 460kts
18-Sep-17 17:05 51.536909 -29.047858 93 37212ft 459kts
18-Sep-17 17:06 51.542620 -28.843915 93 37192ft 451kts
18-Sep-17 17:07 51.547912 -28.638493 93 37209ft 462kts
18-Sep-17 17:08 51.552890 -28.433214 93 37215ft 462kts
18-Sep-17 17:09 51.557345 -28.227136 91 37213ft 482kts
18-Sep-17 17:10 51.562086 -28.006509 91 37215ft 507kts
18-Sep-17 17:11 51.566442 -27.775831 91 37212ft 522kts
18-Sep-17 17:12 51.570348 -27.543494 91 37213ft 521kts
18-Sep-17 17:13 51.573799 -27.311707 92 37209ft 520kts
18-Sep-17 17:14 51.576812 -27.078372 92 37206ft 517kts
18-Sep-17 17:15 51.579322 -26.846294 92 37212ft 521kts
18-Sep-17 17:16 51.581384 -26.615060 92 37214ft 521kts
18-Sep-17 17:17 51.582999 -26.381869 92 37213ft 521kts
18-Sep-17 17:18 51.584162 -26.149535 93 37211ft 521kts
18-Sep-17 17:19 51.584850 -25.916930 93 37213ft 521kts
18-Sep-17 17:20 51.585093 -25.684488 93 37213ft 521kts
18-Sep-17 17:21 51.584947 -25.451995 92 37215ft 520kts
18-Sep-17 17:22 51.584195 -25.223217 94 37215ft 516kts
18-Sep-17 17:23 51.583088 -24.993702 94 37211ft 513kts
18-Sep-17 17:24 51.581523 -24.764131 94 37212ft 514kts
18-Sep-17 17:25 51.579510 -24.534757 94 37213ft 514kts
18-Sep-17 17:26 51.577055 -24.305137 95 37209ft 514kts
18-Sep-17 17:27 51.574143 -24.075486 94 37211ft 515kts
18-Sep-17 17:28 51.570785 -23.846104 94 37213ft 515kts
18-Sep-17 17:29 51.567045 -23.616150 95 37219ft 515kts
18-Sep-17 17:30 51.562720 -23.386777 94 37210ft 517kts
18-Sep-17 17:31 51.558028 -23.157325 95 37210ft 515kts
18-Sep-17 17:32 51.552865 -22.927495 95 37214ft 515kts
18-Sep-17 17:33 51.547268 -22.698021 95 37213ft 516kts
18-Sep-17 17:34 51.541199 -22.467886 95 37212ft 516kts
18-Sep-17 17:35 51.534696 -22.237754 96 37211ft 515kts
18-Sep-17 17:36 51.527633 -22.008002 94 37210ft 516kts
18-Sep-17 17:37 51.520324 -21.777988 96 37217ft 514kts
18-Sep-17 17:38 51.512437 -21.547739 96 37212ft 516kts
18-Sep-17 17:39 51.504129 -21.318171 96 37209ft 517kts
18-Sep-17 17:40 51.495384 -21.088784 96 37212ft 517kts
18-Sep-17 17:41 51.486131 -20.858177 96 37212ft 517kts
18-Sep-17 17:42 51.476464 -20.628664 96 37212ft 518kts
18-Sep-17 17:43 51.466347 -20.399107 96 37212ft 518kts
18-Sep-17 17:44 51.455749 -20.169961 95 37212ft 517kts
18-Sep-17 17:45 51.444761 -19.939601 97 37216ft 516kts
18-Sep-17 17:46 51.433245 -19.709615 97 37211ft 518kts
18-Sep-17 17:47 51.421327 -19.480252 97 37211ft 519kts
18-Sep-17 17:48 51.408928 -19.250142 97 37212ft 518kts
18-Sep-17 17:49 51.396074 -19.020493 97 37212ft 519kts
18-Sep-17 17:50 51.382799 -18.791437 97 37212ft 519kts
18-Sep-17 17:51 51.369028 -18.561550 97 37212ft 519kts
18-Sep-17 17:52 51.354990 -18.335085 97 37213ft 519kts
18-Sep-17 17:53 51.340384 -18.105843 98 37210ft 519kts
18-Sep-17 17:54 51.325269 -17.876516 98 37210ft 520kts
18-Sep-17 17:55 51.309729 -17.647561 97 37212ft 520kts
18-Sep-17 17:56 51.293668 -17.417645 97 37213ft 520kts
18-Sep-17 17:57 51.277259 -17.189137 98 37213ft 520kts
18-Sep-17 17:58 51.260460 -16.959851 98 37207ft 521kts
18-Sep-17 17:59 51.242946 -16.730855 98 37214ft 520kts
18-Sep-17 18:00 51.225123 -16.502036 98 37214ft 520kts
18-Sep-17 18:01 51.206917 -16.274029 99 37212ft 520kts
18-Sep-17 18:02 51.188196 -16.045553 98 37211ft 521kts
18-Sep-17 18:03 51.169033 -15.817151 98 37211ft 521kts
18-Sep-17 18:04 51.149394 -15.588640 98 37213ft 521kts
18-Sep-17 18:05 51.129360 -15.360842 98 37212ft 521kts
18-Sep-17 18:06 51.108885 -15.133221 99 37211ft 521kts
18-Sep-17 18:07 51.088183 -14.906634 99 37209ft 522kts
18-Sep-17 18:08 51.066570 -14.678312 99 37213ft 520kts
18-Sep-17 18:09 51.044785 -14.451518 99 37214ft 521kts
18-Sep-17 18:10 51.022498 -14.224207 99 37210ft 521kts
18-Sep-17 18:11 51.001100 -13.997324 90 37201ft 521kts
18-Sep-17 18:12 51.031091 -13.774224 75 37214ft 519kts
18-Sep-17 18:13 51.061308 -13.553796 75 37207ft 515kts
18-Sep-17 18:14 51.091254 -13.329209 76 37211ft 516kts
18-Sep-17 18:15 51.120695 -13.105665 76 37214ft 518kts
18-Sep-17 18:16 51.149770 -12.881505 76 37212ft 518kts
18-Sep-17 18:17 51.178320 -12.657839 75 37212ft 517kts
18-Sep-17 18:18 51.206554 -12.433023 75 37213ft 516kts
18-Sep-17 18:19 51.232913 -12.218764 75 37210ft 511kts
18-Sep-17 18:20 51.260006 -11.996755 76 37211ft 520kts
18-Sep-17 18:21 51.286841 -11.772093 76 37212ft 515kts
18-Sep-17 18:22 51.313289 -11.546934 76 37213ft 514kts
18-Sep-17 18:23 51.338900 -11.325053 77 37210ft 514kts
18-Sep-17 18:24 51.364156 -11.102118 76 37212ft 514kts
18-Sep-17 18:25 51.389145 -10.877764 76 37212ft 514kts
18-Sep-17 18:26 51.409659 -10.690472 76 37212ft 514kts
18-Sep-17 18:27 51.433850 -10.465763 76 37213ft 513kts
18-Sep-17 18:28 51.456939 -10.245931 75 37209ft 500kts
18-Sep-17 18:29 51.483986 -9.985906 77 37210ft 515kts
18-Sep-17 18:30 51.506745 -9.761159 77 37213ft 513kts
18-Sep-17 18:31 51.525414 -9.573466 77 37213ft 511kts
18-Sep-17 18:32 51.547337 -9.348895 78 37213ft 511kts
18-Sep-17 18:33 51.568462 -9.127951 78 37211ft 512kts
18-Sep-17 18:34 51.589612 -8.902145 78 37211ft 511kts
18-Sep-17 18:35 51.610253 -8.676965 77 37212ft 511kts
18-Sep-17 18:36 51.630493 -8.451257 77 37213ft 511kts
18-Sep-17 18:37 51.649424 -8.235324 78 37210ft 512kts
18-Sep-17 18:38 51.668868 -8.008608 78 37212ft 511kts
18-Sep-17 18:39 51.687868 -7.781723 78 37212ft 512kts
18-Sep-17 18:40 51.706344 -7.555820 78 37212ft 512kts
18-Sep-17 18:41 51.724144 -7.330824 77 37208ft 502kts
18-Sep-17 18:42 51.741350 -7.111679 77 37212ft 499kts
18-Sep-17 18:43 51.758053 -6.891623 77 37212ft 496kts
18-Sep-17 18:44 51.774358 -6.671214 77 37212ft 494kts
18-Sep-17 18:45 51.777383 -6.449153 87 37216ft 503kts
18-Sep-17 18:46 51.768745 -6.226485 88 37208ft 497kts
18-Sep-17 18:47 51.759299 -6.002654 89 37207ft 503kts
18-Sep-17 18:48 51.749379 -5.778005 89 37212ft 504kts
18-Sep-17 18:49 51.739021 -5.553330 89 37212ft 503kts
18-Sep-17 18:50 51.728288 -5.332117 88 37203ft 493kts
18-Sep-17 18:51 51.717677 -5.118082 88 37215ft 494kts
18-Sep-17 18:52 51.706237 -4.899300 87 37206ft 493kts
18-Sep-17 18:53 51.694130 -4.676899 86 37204ft 497kts
18-Sep-17 18:54 51.681826 -4.454552 87 37215ft 501kts
18-Sep-17 18:55 51.670388 -4.256358 88 37214ft 502kts
18-Sep-17 18:56 51.657159 -4.034422 88 37213ft 500kts
18-Sep-17 18:57 51.643516 -3.813729 87 37202ft 486kts
18-Sep-17 18:58 51.630036 -3.596930 86 36044ft 491kts
18-Sep-17 18:59 51.616122 -3.378002 86 34504ft 501kts
18-Sep-17 19:00 51.593504 -3.161933 93 32961ft 514kts
18-Sep-17 19:01 51.563243 -2.938225 93 31368ft 517kts
18-Sep-17 19:02 51.531993 -2.711691 93 29630ft 516kts
18-Sep-17 19:03 51.502110 -2.489154 94 26987ft 513kts
18-Sep-17 19:04 51.474777 -2.289192 94 24462ft 476kts
18-Sep-17 19:05 51.447026 -2.087587 97 22025ft 467kts
18-Sep-17 19:06 51.418525 -1.887337 98 19595ft 463kts
18-Sep-17 19:07 51.390656 -1.694377 99 17195ft 427kts
18-Sep-17 19:08 51.364674 -1.516763 100 14894ft 406kts
18-Sep-17 19:09 51.339169 -1.345176 101 12802ft 397kts
18-Sep-17 19:10 51.315742 -1.187849 99 11400ft 367kts
18-Sep-17 19:11 51.312041 -1.035772 88 10777ft 334kts
18-Sep-17 19:12 51.310564 -0.896732 89 10207ft 307kts
18-Sep-17 19:13 51.309168 -0.767255 88 9403ft 294kts
18-Sep-17 19:14 51.307657 -0.638787 89 8114ft 291kts
18-Sep-17 19:15 51.306550 -0.513851 90 7343ft 277kts
18-Sep-17 19:16 51.305398 -0.392610 90 6835ft 276kts
18-Sep-17 19:17 51.304253 -0.277259 90 5886ft 272kts
18-Sep-17 19:18 51.308595 -0.159996 55 4874ft 269kts
18-Sep-17 19:19 51.372168 -0.126850 9 4045ft 258kts
18-Sep-17 19:20 51.431341 -0.109183 0 3377ft 235kts
18-Sep-17 19:21 51.472611 -0.159500 298 2997ft 208kts
18-Sep-17 19:22 51.478095 -0.235054 270 2553ft 169kts
18-Sep-17 19:23 51.478070 -0.301058 270 1717ft 148kts
18-Sep-17 19:24 51.477848 -0.364529 270 963ft 145kts
18-Sep-17 19:25 51.477688 -0.427224 270 212ft 140kts
18-Sep-17 19:26 51.477578 -0.463754 269 88ft 35kts
18-Sep-17 19:27 51.475184 -0.469199 154 88ft 8kts
18-Sep-17 19:28 51.474027 -0.466280 126 88ft 4kts
18-Sep-17 19:29 51.473886 -0.465970 126 88ft 0kts
18-Sep-17 19:30 51.473886 -0.465970 126 88ft 0kts
18-Sep-17 19:31 51.473886 -0.465970 126 88ft 0kts
18-Sep-17 19:32 51.473886 -0.465970 126 88ft 0kts
18-Sep-17 19:33 51.473886 -0.465970 126 88ft 0kts
18-Sep-17 19:34 51.473886 -0.465970 126 88ft 0kts
18-Sep-17 19:35 51.473886 -0.465970 126 88ft 0kts
18-Sep-17 19:36 51.473886 -0.465970 126 88ft 0kts

Navigation Log

Ident Type
Flight plan parsing failed, navigation log unavailable